Time;durP1;ratioP1;P1;durP2;ratioP2;P2;SDS_P1;SDS_P2;PMS_P1;PMS_P2;Temp;Humidity;BMP_temperature;BMP_pressure;BME280_temperature;BME280_humidity;BME280_pressure;Samples;Min_cycle;Max_cycle;Signal;HPM_P1;HPM_P2
2022/08/13 00:01:05;;;;;;;7.00;6.50;;;;;;;29.16;55.88;100830.72;5081903;27;66744;-35
2022/08/13 00:03:40;;;;;;;7.40;6.90;;;;;;;29.15;55.92;100829.06;5080950;27;70339;-35
2022/08/13 00:09:24;;;;;;;7.28;6.75;;;;;;;29.26;56.96;100843.81;5081192;28;71068;-36
2022/08/13 00:15:20;;;;;;;6.95;6.55;;;;;;;29.22;57.03;100819.06;5080136;28;70938;-35
2022/08/13 00:17:57;;;;;;;14.63;7.20;;;;;;;29.50;56.98;100847.69;5076370;28;66155;-33
2022/08/13 00:20:41;;;;;;;11.30;8.57;;;;;;;29.47;60.18;100848.13;5080852;28;70108;-35
2022/08/13 00:23:27;;;;;;;11.63;10.23;;;;;;;28.82;62.42;100743.47;5078864;27;66374;-34
2022/08/13 00:26:22;;;;;;;13.10;11.77;;;;;;;29.54;63.94;100849.75;5079393;27;70613;-34
2022/08/13 00:29:04;;;;;;;13.18;11.90;;;;;;;29.48;65.75;100834.41;5077870;28;66062;-35
2022/08/13 00:31:41;;;;;;;16.23;13.10;;;;;;;29.58;67.52;100842.88;5078987;28;71122;-34
2022/08/13 00:34:19;;;;;;;21.27;17.00;;;;;;;29.71;69.12;100855.56;5079440;28;66800;-34
2022/08/13 00:36:55;;;;;;;22.95;16.25;;;;;;;29.74;70.32;100854.31;5079940;27;70782;-36
2022/08/13 00:39:37;;;;;;;22.57;16.93;;;;;;;29.79;67.04;100841.81;5080372;27;66976;-34
2022/08/13 00:42:31;;;;;;;17.60;14.63;;;;;;;29.96;65.01;100852.16;5078262;28;71206;-34
2022/08/13 00:45:16;;;;;;;15.32;13.88;;;;;;;30.06;63.87;100857.91;5077797;27;67030;-36
2022/08/13 00:50:42;;;;;;;25.25;18.60;;;;;;;30.08;63.75;100834.19;5079535;27;67151;-35
2022/08/13 00:53:17;;;;;;;29.25;24.27;;;;;;;30.26;63.88;100874.94;5080303;27;70488;-35
2022/08/13 00:55:58;;;;;;;33.42;27.30;;;;;;;29.78;64.14;100761.75;5080505;28;66659;-34
2022/08/13 00:58:33;;;;;;;36.65;26.75;;;;;;;30.40;63.75;100866.75;5078271;27;70924;-37
2022/08/13 01:01:08;;;;;;;34.20;25.38;;;;;;;30.31;64.38;100832.84;5080492;28;67037;-36
2022/08/13 01:03:48;;;;;;;36.60;27.75;;;;;;;30.04;65.76;100795.09;5078182;27;70947;-35
2022/08/13 01:06:41;;;;;;;35.47;25.17;;;;;;;30.44;65.51;100854.41;5079267;28;66398;-37
2022/08/13 01:09:23;;;;;;;38.67;24.33;;;;;;;30.53;65.55;100861.22;5062512;28;70342;-38
2022/08/13 01:12:19;;;;;;;35.50;23.50;;;;;;;30.63;65.91;100880.53;5080210;28;66817;-37
2022/08/13 01:15:02;;;;;;;29.33;22.02;;;;;;;30.20;65.80;100794.59;5070544;28;70853;-36
2022/08/13 01:17:46;;;;;;;38.95;21.75;;;;;;;30.61;67.03;100865.53;5079601;27;67024;-31
2022/08/13 01:20:25;;;;;;;24.05;20.00;;;;;;;30.48;65.91;100834.00;5081330;27;70924;-31
2022/08/13 01:23:05;;;;;;;33.05;19.80;;;;;;;30.82;65.96;100886.06;5077757;27;66643;-31
2022/08/13 01:25:39;;;;;;;25.25;18.73;;;;;;;30.88;66.30;100885.19;5080043;27;70648;-31
2022/08/13 01:28:27;;;;;;;24.90;17.88;;;;;;;30.91;66.34;100879.31;5079528;27;67710;-32
2022/08/13 01:31:05;;;;;;;28.48;18.45;;;;;;;30.94;66.15;100885.13;5079304;28;70749;-31
2022/08/13 01:33:55;;;;;;;20.02;17.90;;;;;;;30.86;66.74;100862.91;5073124;28;66894;-32
2022/08/13 01:36:29;;;;;;;23.08;17.45;;;;;;;30.47;66.23;100789.00;5076365;27;70491;-31
2022/08/13 01:39:22;;;;;;;24.83;16.75;;;;;;;31.05;66.42;100878.16;5080493;28;66941;-31
2022/08/13 01:41:59;;;;;;;24.52;17.67;;;;;;;31.02;66.33;100872.34;5075172;27;70958;-31
2022/08/13 01:44:35;;;;;;;20.65;17.45;;;;;;;31.07;66.31;100873.34;5057256;28;67273;-32
2022/08/13 01:50:31;;;;;;;18.48;16.60;;;;;;;31.16;66.71;100882.84;5076463;27;67369;-31
2022/08/13 01:53:09;;;;;;;20.95;16.23;;;;;;;31.20;66.79;100874.25;5079314;27;70735;-31
2022/08/13 01:55:45;;;;;;;24.10;17.70;;;;;;;30.61;66.48;100768.91;5080180;28;66893;-32
2022/08/13 01:58:39;;;;;;;27.70;17.33;;;;;;;31.28;66.65;100873.97;5079474;28;70803;-31
2022/08/13 02:01:32;;;;;;;23.60;17.20;;;;;;;31.30;66.34;100867.28;5078937;28;67132;-32
2022/08/13 02:04:15;;;;;;;21.92;16.63;;;;;;;31.35;66.86;100874.75;5056591;28;70992;-32
2022/08/13 02:06:59;;;;;;;20.88;16.40;;;;;;;31.28;66.24;100849.59;5079135;27;66846;-31
2022/08/13 02:09:36;;;;;;;21.60;15.40;;;;;;;31.38;66.24;100860.78;5083505;27;70243;-31
2022/08/13 02:12:28;;;;;;;21.30;15.77;;;;;;;31.29;66.02;100835.84;5078278;27;66825;-32
2022/08/13 02:15:16;;;;;;;20.85;15.13;;;;;;;31.35;66.31;100845.78;5084156;28;70901;-31
2022/08/13 02:18:16;;;;;;;21.23;15.70;;;;;;;31.50;66.90;100861.69;5082380;28;66464;-31
2022/08/13 02:20:58;;;;;;;18.88;15.27;;;;;;;31.47;66.59;100870.28;5080919;28;71124;-31
2022/08/13 02:23:34;;;;;;;18.03;15.47;;;;;;;31.38;65.95;100837.22;5080498;27;66377;-32
2022/08/13 02:26:27;;;;;;;18.25;16.30;;;;;;;31.59;65.80;100879.34;5082612;28;69627;-31
2022/08/13 02:29:04;;;;;;;17.33;15.52;;;;;;;31.49;65.50;100851.91;5082804;27;66951;-31
2022/08/13 02:31:37;;;;;;;24.70;16.15;;;;;;;31.63;65.43;100868.84;5053440;28;69862;-32
2022/08/13 02:34:30;;;;;;;22.73;14.82;;;;;;;31.65;65.34;100865.91;5081579;27;66336;-31
2022/08/13 02:37:10;;;;;;;17.15;15.13;;;;;;;31.57;65.30;100843.47;5082197;28;70073;-31
2022/08/13 02:41:37;;;;;;;22.13;15.35;;;;;;;31.41;64.95;100816.97;5080206;28;66862;-31
2022/08/13 02:43:00;;;;;;;27.13;15.77;;;;;;;31.72;64.94;100872.91;5082592;28;70093;-31
2022/08/13 02:45:34;;;;;;;18.27;15.27;;;;;;;31.75;64.99;100866.22;5082551;27;65985;-32
2022/08/13 02:48:10;;;;;;;17.30;15.18;;;;;;;31.76;64.61;100862.44;5083021;27;70780;-32
2022/08/13 02:50:55;;;;;;;23.70;16.35;;;;;;;31.66;64.69;100846.72;5074056;27;66296;-33
2022/08/13 02:53:31;;;;;;;28.90;15.95;;;;;;;31.80;64.58;100871.78;5030298;27;69656;-31
2022/08/13 02:56:08;;;;;;;28.92;16.27;;;;;;;31.79;64.90;100865.53;5080681;28;67200;-31
2022/08/13 02:58:41;;;;;;;23.63;15.15;;;;;;;31.84;64.24;100862.13;5062606;28;70745;-31
2022/08/13 03:01:17;;;;;;;20.70;15.00;;;;;;;31.86;64.33;100868.16;5081605;28;66826;-31
2022/08/13 03:03:54;;;;;;;19.23;14.10;;;;;;;31.88;63.86;100884.22;5081524;28;70000;-32
2022/08/13 03:06:27;;;;;;;22.42;14.98;;;;;;;31.90;63.90;100869.38;5081468;28;67178;-31
2022/08/13 03:09:02;;;;;;;24.23;14.40;;;;;;;31.92;64.14;100867.28;5077999;28;70625;-31
2022/08/13 03:11:36;;;;;;;21.63;14.27;;;;;;;31.94;63.73;100857.03;5078404;28;66458;-31
2022/08/13 03:14:15;;;;;;;16.42;14.38;;;;;;;31.89;63.54;100842.47;5080629;28;70052;-31
2022/08/13 03:16:49;;;;;;;14.93;13.45;;;;;;;31.95;63.28;100838.88;5042704;27;66859;-33
2022/08/13 03:19:21;;;;;;;19.05;13.23;;;;;;;31.99;63.46;100851.75;5063557;27;70613;-30
2022/08/13 03:21:54;;;;;;;18.30;13.45;;;;;;;32.02;62.83;100856.72;5079868;27;66464;-31
2022/08/13 03:24:30;;;;;;;18.33;13.35;;;;;;;32.03;63.19;100852.13;5080575;27;70937;-32
2022/08/13 03:27:04;;;;;;;21.48;13.48;;;;;;;31.93;63.01;100830.97;5074394;28;66812;-31
2022/08/13 03:29:39;;;;;;;23.10;12.93;;;;;;;32.07;63.18;100852.47;5080812;27;69863;-32
2022/08/13 03:32:40;;;;;;;14.85;13.27;;;;;;;32.00;62.93;100837.13;5080187;27;66443;-32
2022/08/13 03:35:23;;;;;;;16.73;12.35;;;;;;;32.06;63.21;100846.22;5075922;28;70995;-31
2022/08/13 03:38:15;;;;;;;22.08;12.90;;;;;;;32.02;62.97;100832.31;5079508;27;67283;-31
2022/08/13 03:41:11;;;;;;;23.77;13.23;;;;;;;32.06;63.35;100835.38;5081365;28;70687;-31
2022/08/13 03:43:47;;;;;;;13.65;12.32;;;;;;;31.55;62.98;100753.41;5078377;28;67031;-32
2022/08/13 03:46:26;;;;;;;13.32;11.98;;;;;;;31.56;62.85;100743.38;5062779;28;70170;-31
2022/08/13 03:49:00;;;;;;;15.02;11.90;;;;;;;32.14;62.75;100847.81;5063846;28;66711;-31
2022/08/13 03:51:33;;;;;;;16.15;11.57;;;;;;;32.10;62.50;100835.78;5081521;27;70766;-32
2022/08/13 03:54:18;;;;;;;14.77;11.80;;;;;;;32.11;62.90;100842.84;5081900;28;66647;-31
2022/08/13 03:56:56;;;;;;;21.00;11.52;;;;;;;32.09;62.80;100834.09;5080597;27;71028;-30
2022/08/13 03:59:34;;;;;;;18.60;11.18;;;;;;;32.20;62.67;100844.16;5081745;27;65921;-32
2022/08/13 04:02:19;;;;;;;21.30;11.40;;;;;;;32.21;62.35;100840.41;5081065;28;70027;-31
2022/08/13 04:04:53;;;;;;;17.02;11.52;;;;;;;32.22;62.33;100823.06;5061511;28;67126;-31
2022/08/13 04:07:27;;;;;;;12.27;10.90;;;;;;;32.21;62.16;100819.53;5081404;27;70677;-31
2022/08/13 04:10:12;;;;;;;16.77;11.25;;;;;;;32.18;62.50;100816.44;5079572;27;67827;-32
2022/08/13 04:12:51;;;;;;;12.00;10.75;;;;;;;32.21;62.29;100805.13;5081108;28;71023;-31
2022/08/13 04:15:24;;;;;;;11.85;10.68;;;;;;;32.25;62.09;100807.13;5079777;28;66892;-31
2022/08/13 04:18:14;;;;;;;13.93;10.95;;;;;;;32.26;62.13;100816.94;5080108;27;70340;-32
2022/08/13 04:20:54;;;;;;;12.77;11.35;;;;;;;32.28;61.95;100805.84;5080962;27;66898;-31
2022/08/13 04:23:29;;;;;;;16.23;11.07;;;;;;;32.28;61.80;100812.09;5081921;27;71110;-32
2022/08/13 04:26:02;;;;;;;12.50;10.18;;;;;;;32.32;62.15;100800.78;5079422;28;65900;-32
2022/08/13 04:28:38;;;;;;;12.70;11.35;;;;;;;32.32;62.19;100812.47;5062757;28;70684;-32
2022/08/13 04:31:15;;;;;;;17.73;10.00;;;;;;;32.27;61.99;100804.19;5080172;27;66739;-32
2022/08/13 04:33:50;;;;;;;11.65;10.48;;;;;;;32.32;62.08;100801.63;5080563;27;70690;-32
2022/08/13 04:36:43;;;;;;;12.02;9.75;;;;;;;32.28;62.01;100781.41;5079291;28;66242;-32
2022/08/13 04:39:21;;;;;;;12.00;9.90;;;;;;;32.28;62.01;100774.09;5080415;27;70742;-32
2022/08/13 04:41:59;;;;;;;17.50;10.05;;;;;;;32.37;61.80;100782.72;5057192;28;65914;-31
2022/08/13 04:44:35;;;;;;;18.48;9.65;;;;;;;32.26;61.79;100749.09;5077142;27;70004;-31
2022/08/13 04:47:08;;;;;;;11.90;9.18;;;;;;;32.41;61.70;100778.50;5080361;27;66182;-32
2022/08/13 04:49:47;;;;;;;14.23;9.98;;;;;;;32.42;61.68;100763.84;5080494;28;70503;-31
2022/08/13 04:52:20;;;;;;;10.13;9.18;;;;;;;32.07;61.65;100701.38;5079767;28;65880;-32
2022/08/13 04:55:02;;;;;;;10.82;9.82;;;;;;;32.49;61.45;100767.34;5076511;27;70504;-31
2022/08/13 04:57:41;;;;;;;14.85;9.35;;;;;;;32.30;61.79;100733.16;5081172;27;66383;-32
2022/08/13 05:00:32;;;;;;;12.40;9.43;;;;;;;32.43;61.59;100754.66;5066910;28;70087;-31
2022/08/13 05:03:16;;;;;;;14.40;9.15;;;;;;;32.42;61.59;100742.13;5080454;27;66327;-31
2022/08/13 05:05:54;;;;;;;13.05;9.85;;;;;;;32.54;61.48;100744.06;5080099;27;70948;-31
2022/08/13 05:08:31;;;;;;;10.93;9.93;;;;;;;32.56;61.46;100748.22;5078260;28;66209;-33
2022/08/13 05:11:04;;;;;;;10.50;9.63;;;;;;;32.56;61.21;100731.09;5079555;28;71300;-31
2022/08/13 05:13:51;;;;;;;14.50;9.35;;;;;;;32.60;61.24;100738.53;5074573;27;67276;-31
2022/08/13 05:16:27;;;;;;;11.27;9.73;;;;;;;32.62;60.98;100730.97;5081031;27;70431;-31
2022/08/13 05:19:00;;;;;;;12.52;9.73;;;;;;;32.66;61.13;100734.06;5062884;28;66936;-31
2022/08/13 05:21:33;;;;;;;12.02;9.85;;;;;;;32.67;61.16;100722.13;5078936;28;70724;-32
2022/08/13 05:24:26;;;;;;;13.13;10.32;;;;;;;32.49;61.38;100721.19;5081501;27;65337;-33
2022/08/13 05:27:19;;;;;;;14.20;11.38;;;;;;;32.37;61.98;100712.16;5077524;27;70139;-31
2022/08/13 05:29:52;;;;;;;17.77;11.50;;;;;;;32.22;62.29;100719.94;5077676;28;67463;-32
2022/08/13 05:32:45;;;;;;;12.30;10.95;;;;;;;32.00;60.41;100706.91;5079329;28;70694;-31
2022/08/13 05:35:20;;;;;;;12.23;11.15;;;;;;;31.83;59.71;100698.56;5079603;27;66186;-35
2022/08/13 05:38:15;;;;;;;12.85;11.15;;;;;;;31.67;58.49;100695.69;5079599;28;70630;-31
2022/08/13 05:40:56;;;;;;;11.65;10.18;;;;;;;31.02;57.24;100596.03;5080991;27;66577;-32
2022/08/13 05:43:33;;;;;;;12.90;11.13;;;;;;;31.42;56.60;100661.41;5078856;28;70756;-31
2022/08/13 05:46:09;;;;;;;10.80;9.93;;;;;;;31.42;55.48;100693.91;5082812;27;66175;-31
2022/08/13 05:48:56;;;;;;;11.40;9.27;;;;;;;31.39;55.20;100697.09;5083320;27;70775;-31
2022/08/13 05:51:33;;;;;;;9.80;9.20;;;;;;;30.73;54.69;100582.22;5082694;28;66774;-33
2022/08/13 05:54:27;;;;;;;9.77;8.93;;;;;;;31.25;54.13;100666.59;5082918;27;70273;-31
2022/08/13 05:57:20;;;;;;;9.38;8.77;;;;;;;31.20;53.09;100669.16;5082720;28;65658;-31
2022/08/13 06:06:16;;;;;;;8.40;7.70;;;;;;;31.08;51.36;100639.28;5080662;28;70628;-31
2022/08/13 06:08:58;;;;;;;8.43;7.97;;;;;;;30.98;51.33;100628.19;5081908;28;66998;-32
2022/08/13 06:11:31;;;;;;;7.20;6.78;;;;;;;31.07;50.98;100643.06;5082143;28;70747;-31
2022/08/13 06:14:25;;;;;;;7.75;7.32;;;;;;;30.90;50.66;100609.53;5081510;28;66407;-31
2022/08/13 06:17:03;;;;;;;8.38;7.88;;;;;;;31.04;50.21;100638.09;5082174;28;70653;-32
2022/08/13 06:19:43;;;;;;;7.53;7.00;;;;;;;30.56;50.02;100554.88;5081357;27;66538;-34
2022/08/13 06:22:23;;;;;;;7.80;7.22;;;;;;;31.04;49.52;100635.41;5083207;28;70220;-32
2022/08/13 06:24:57;;;;;;;6.93;6.47;;;;;;;30.97;49.41;100621.09;5085975;27;65493;-30
2022/08/13 06:27:31;;;;;;;7.00;6.50;;;;;;;31.02;49.41;100629.38;5081280;27;70028;-30
2022/08/13 06:30:30;;;;;;;6.93;6.53;;;;;;;30.88;48.78;100603.50;5059773;28;66434;-31
2022/08/13 06:33:05;;;;;;;6.63;6.22;;;;;;;30.85;48.28;100590.41;5083780;28;70417;-33
2022/08/13 06:36:04;;;;;;;6.25;5.80;;;;;;;30.58;47.94;100536.53;5079911;27;66428;-31
2022/08/13 06:38:49;;;;;;;;;;;;;;;30.79;48.44;100618.38;5076765;27;70781;-33
2022/08/13 06:41:22;;;;;;;;;;;;;;;30.80;48.09;100609.22;5081762;27;67060;-31
2022/08/13 06:44:04;;;;;;;6.00;5.60;;;;;;;30.64;47.55;100535.63;5081533;27;70409;-31
2022/08/13 06:46:38;;;;;;;5.82;5.40;;;;;;;31.05;46.97;100601.81;5058505;27;67058;-31
2022/08/13 06:49:16;;;;;;;6.03;5.60;;;;;;;31.09;46.80;100613.88;5076894;27;69880;-32
2022/08/13 06:51:50;;;;;;;5.93;5.43;;;;;;;31.12;46.40;100604.44;5081467;27;67026;-31
2022/08/13 06:54:27;;;;;;;9.02;5.53;;;;;;;31.14;46.83;100597.72;5082557;27;70303;-31
2022/08/13 06:57:05;;;;;;;5.28;4.78;;;;;;;31.10;46.60;100572.16;5081963;28;66888;-31
2022/08/13 06:59:57;;;;;;;5.82;5.43;;;;;;;31.15;45.68;100585.84;5078847;27;70505;-31
2022/08/13 07:02:50;;;;;;;5.68;5.28;;;;;;;30.98;45.25;100565.88;5080702;27;66734;-30
2022/08/13 07:05:41;;;;;;;5.18;4.78;;;;;;;31.10;45.53;100582.19;5081330;28;71217;-32
2022/08/13 07:08:17;;;;;;;4.72;4.43;;;;;;;31.07;45.56;100567.22;5081765;28;67029;-32
2022/08/13 07:11:21;;;;;;;5.00;4.60;;;;;;;31.20;45.81;100581.63;5068545;28;70854;-32
2022/08/13 07:13:52;;;;;;;5.15;4.85;;;;;;;31.22;45.37;100584.94;5080877;28;66395;-30
2022/08/13 07:16:33;;;;;;;4.80;4.47;;;;;;;30.66;45.22;100490.22;5080664;28;70204;-30
2022/08/13 07:19:05;;;;;;;7.35;5.25;;;;;;;31.27;45.38;100576.94;5081602;28;67011;-32
2022/08/13 07:21:42;;;;;;;5.47;5.05;;;;;;;30.56;44.97;100456.63;5081202;28;70832;-31
2022/08/13 07:24:15;;;;;;;5.82;5.28;;;;;;;31.33;44.58;100576.03;5080145;27;67265;-31
2022/08/13 07:27:08;;;;;;;4.95;4.55;;;;;;;31.29;44.40;100553.97;5080380;28;70422;-31
2022/08/13 07:29:49;;;;;;;4.82;4.53;;;;;;;31.36;44.39;100560.16;5081102;28;66311;-30
2022/08/13 07:32:27;;;;;;;4.50;4.10;;;;;;;31.25;43.83;100541.13;5081165;28;70127;-30
2022/08/13 07:35:00;;;;;;;4.93;4.63;;;;;;;31.37;44.04;100558.25;5040940;28;66865;-32
2022/08/13 07:37:34;;;;;;;4.57;4.18;;;;;;;31.39;43.66;100558.84;5078308;28;71168;-31
2022/08/13 07:40:22;;;;;;;5.90;4.45;;;;;;;31.40;43.28;100557.81;5079447;28;66053;-31
2022/08/13 07:43:05;;;;;;;4.78;4.47;;;;;;;30.95;42.86;100476.94;5079932;28;70090;-31
2022/08/13 07:46:10;;;;;;;4.65;4.35;;;;;;;31.24;43.22;100540.28;5080753;28;66986;-31
2022/08/13 07:48:59;;;;;;;4.57;4.28;;;;;;;31.42;43.18;100568.41;5081524;28;70274;-32
2022/08/13 07:51:37;;;;;;;4.10;3.75;;;;;;;31.41;42.96;100540.50;5061585;28;66881;-32
2022/08/13 07:54:13;;;;;;;5.10;4.38;;;;;;;31.44;43.18;100545.44;5080172;28;70034;-32
2022/08/13 07:56:49;;;;;;;3.75;3.55;;;;;;;31.42;43.43;100531.28;5061806;28;67288;-31
2022/08/13 07:59:26;;;;;;;4.85;4.55;;;;;;;31.33;43.67;100506.38;5080866;28;70655;-31
2022/08/13 08:02:19;;;;;;;4.20;3.80;;;;;;;31.73;44.01;100529.31;5080152;28;67468;-30
2022/08/13 08:04:57;;;;;;;9.55;4.25;;;;;;;31.96;45.27;100523.97;5079113;27;70209;-31
2022/08/13 08:07:29;;;;;;;5.05;4.65;;;;;;;32.31;47.53;100536.66;5079368;28;67250;-31
2022/08/13 08:10:25;;;;;;;11.80;5.00;;;;;;;32.58;49.57;100538.88;5065232;28;70820;-31
2022/08/13 08:13:02;;;;;;;6.55;5.43;;;;;;;32.54;51.00;100500.53;5079239;28;67082;-30
2022/08/13 08:15:44;;;;;;;8.13;6.05;;;;;;;32.47;52.83;100462.66;5062945;28;70818;-30
2022/08/13 08:18:37;;;;;;;8.40;5.95;;;;;;;32.46;52.79;100444.72;5080760;28;66859;-30
2022/08/13 08:21:30;;;;;;;7.40;6.50;;;;;;;33.19;52.84;100534.66;5080115;28;70107;-31
2022/08/13 08:24:24;;;;;;;7.65;6.57;;;;;;;33.03;52.55;100486.53;5078946;27;66340;-31
2022/08/13 08:27:09;;;;;;;9.80;6.65;;;;;;;33.42;52.93;100533.69;5080821;27;70070;-30
2022/08/13 08:29:49;;;;;;;9.10;6.57;;;;;;;33.38;53.00;100506.19;5078720;27;66541;-31
2022/08/13 08:32:45;;;;;;;9.40;6.88;;;;;;;33.46;52.67;100490.53;5080450;28;70604;-30
2022/08/13 08:35:25;;;;;;;15.15;7.28;;;;;;;33.60;52.57;100500.06;5080492;28;66782;-30
2022/08/13 08:44:00;;;;;;;15.90;7.43;;;;;;;33.86;52.43;100511.31;5079492;28;70705;-30
2022/08/13 08:46:37;;;;;;;16.02;8.52;;;;;;;33.51;51.87;100441.66;5074214;28;67309;-30
2022/08/13 08:49:21;;;;;;;10.05;8.23;;;;;;;33.96;52.06;100503.28;5076956;27;70198;-31
2022/08/13 08:52:06;;;;;;;17.67;8.50;;;;;;;33.99;52.08;100486.44;5078630;28;66649;-31
2022/08/13 08:54:40;;;;;;;19.20;8.10;;;;;;;34.07;51.79;100486.03;5079200;28;70941;-30
2022/08/13 08:57:18;;;;;;;13.88;8.70;;;;;;;34.07;52.17;100485.22;5078639;28;67466;-31
2022/08/13 08:59:52;;;;;;;15.05;8.70;;;;;;;34.15;51.71;100477.44;5074180;28;70037;-30
2022/08/13 09:02:29;;;;;;;14.40;8.55;;;;;;;33.76;51.62;100412.13;5062367;28;67022;-31
2022/08/13 09:05:12;;;;;;;10.57;7.95;;;;;;;34.20;51.62;100484.88;5078052;28;70827;-30
2022/08/13 09:07:49;;;;;;;12.25;8.23;;;;;;;34.20;51.45;100463.09;5062999;28;66209;-31
2022/08/13 09:10:24;;;;;;;9.73;8.60;;;;;;;34.25;51.62;100457.72;5080349;28;70291;-30
2022/08/13 09:13:02;;;;;;;17.13;8.20;;;;;;;34.26;51.36;100468.34;5080592;27;66678;-31
2022/08/13 09:15:39;;;;;;;10.90;9.77;;;;;;;34.05;51.82;100468.34;5079302;28;70256;-31
2022/08/13 09:18:21;;;;;;;16.35;10.15;;;;;;;33.81;53.39;100477.50;5076350;28;66309;-30
2022/08/13 09:21:02;;;;;;;10.40;9.18;;;;;;;33.71;54.01;100465.66;5077308;28;70574;-30
2022/08/13 09:23:56;;;;;;;15.10;9.80;;;;;;;33.56;55.50;100458.09;5059288;28;66259;-32
2022/08/13 09:26:51;;;;;;;9.65;8.75;;;;;;;33.52;56.27;100457.78;5060519;28;70560;-32
2022/08/13 09:29:30;;;;;;;10.43;9.37;;;;;;;33.45;56.51;100461.69;5078591;28;66400;-33
2022/08/13 09:32:07;;;;;;;11.13;9.40;;;;;;;33.48;57.13;100466.63;5079007;28;70936;-31
2022/08/13 09:35:01;;;;;;;16.05;9.50;;;;;;;33.45;57.34;100461.69;5054544;28;66328;-32
2022/08/13 09:37:37;;;;;;;10.27;9.23;;;;;;;33.45;57.93;100475.28;5080538;27;44346;-31
2022/08/13 09:40:31;;;;;;;18.83;8.95;;;;;;;32.55;58.00;100327.59;5077969;28;67005;-32
2022/08/13 09:43:21;;;;;;;18.35;9.52;;;;;;;33.17;57.91;100421.81;5057890;28;70441;-31
2022/08/13 09:46:16;;;;;;;11.73;10.57;;;;;;;33.47;56.70;100465.81;5076894;28;67050;-31
2022/08/13 09:48:52;;;;;;;21.83;11.35;;;;;;;33.50;56.15;100464.50;5078461;28;70723;-31
2022/08/13 09:51:33;;;;;;;29.38;11.25;;;;;;;33.62;56.03;100467.16;5076865;28;67137;-30
2022/08/13 09:54:26;;;;;;;34.38;10.05;;;;;;;33.83;55.87;100462.84;5073587;28;71055;-31
2022/08/13 09:56:59;;;;;;;17.73;9.30;;;;;;;33.95;55.43;100458.09;5044744;28;66340;-32
2022/08/13 09:59:33;;;;;;;22.80;9.63;;;;;;;34.03;55.83;100466.66;5054613;28;70803;-32
2022/08/13 10:02:12;;;;;;;15.77;9.65;;;;;;;34.04;55.44;100453.88;5079640;27;67136;-31
2022/08/13 10:04:47;;;;;;;17.73;9.25;;;;;;;34.15;55.68;100466.56;5075134;28;70876;-31
2022/08/13 10:07:20;;;;;;;18.05;9.02;;;;;;;34.19;55.46;100466.91;5076320;28;66224;-31
2022/08/13 10:09:53;;;;;;;9.52;8.63;;;;;;;34.22;55.32;100469.94;5079380;28;70041;-32
2022/08/13 10:12:46;;;;;;;13.70;10.02;;;;;;;34.15;55.37;100450.22;5061349;28;65951;-32
2022/08/13 10:15:22;;;;;;;19.08;8.90;;;;;;;34.29;55.46;100456.13;5074840;28;70484;-31
2022/08/13 10:17:58;;;;;;;15.82;8.80;;;;;;;34.22;55.63;100444.59;5078823;27;66873;-31
2022/08/13 10:20:36;;;;;;;10.40;8.82;;;;;;;33.83;55.37;100381.22;5079494;27;70978;-31
2022/08/13 10:23:13;;;;;;;9.90;8.90;;;;;;;33.40;55.62;100318.34;5060302;28;66456;-32
2022/08/13 10:25:49;;;;;;;11.30;8.85;;;;;;;34.36;55.50;100461.38;5074726;27;70058;-33
2022/08/13 10:28:37;;;;;;;10.05;8.05;;;;;;;34.14;55.37;100437.69;5076584;28;66182;-32
2022/08/13 10:31:18;;;;;;;8.73;7.95;;;;;;;34.38;55.67;100481.00;5083300;28;70681;-36
2022/08/13 10:34:11;;;;;;;9.43;8.55;;;;;;;34.38;55.25;100486.44;5066363;28;67034;-32
2022/08/13 10:36:49;;;;;;;20.75;9.40;;;;;;;34.41;54.67;100488.69;5082816;28;70733;-31
2022/08/13 10:39:22;;;;;;;20.20;9.30;;;;;;;34.39;54.59;100488.09;5082841;27;67480;-32
2022/08/13 10:41:55;;;;;;;18.00;9.10;;;;;;;34.40;54.94;100490.56;5082898;28;70127;-32
2022/08/13 10:44:34;;;;;;;18.63;8.82;;;;;;;34.40;55.22;100489.75;5076607;28;66448;-32
2022/08/13 10:47:07;;;;;;;18.45;8.77;;;;;;;34.28;55.01;100470.81;5079079;27;69949;-32
2022/08/13 10:49:40;;;;;;;19.05;9.15;;;;;;;34.37;55.87;100479.34;5082584;27;66929;-31
2022/08/13 10:52:13;;;;;;;15.13;9.65;;;;;;;34.35;55.83;100486.94;5081830;28;70663;-33
2022/08/13 10:54:53;;;;;;;17.17;10.02;;;;;;;34.26;55.60;100473.78;5082123;28;66703;-31
2022/08/13 10:57:26;;;;;;;14.70;10.07;;;;;;;34.41;55.74;100502.28;5081697;27;70575;-31
2022/08/13 11:00:06;;;;;;;21.30;10.43;;;;;;;34.40;55.65;100501.44;5081760;27;66937;-31
2022/08/13 11:02:41;;;;;;;22.42;12.32;;;;;;;34.41;55.79;100505.84;5081997;28;69838;-33
2022/08/13 11:05:25;;;;;;;19.83;11.55;;;;;;;34.41;56.02;100507.75;5082847;28;67082;-32
2022/08/13 11:07:59;;;;;;;21.85;12.75;;;;;;;34.33;56.35;100494.56;5078617;27;70027;-32
2022/08/13 11:10:34;;;;;;;22.55;13.82;;;;;;;34.38;56.54;100503.63;5079346;27;66247;-32
2022/08/13 11:13:27;;;;;;;22.02;14.55;;;;;;;34.39;56.38;100510.72;5081693;27;70775;-32
2022/08/13 11:19:15;;;;;;;32.05;14.50;;;;;;;34.35;57.76;100514.19;5082228;27;70931;-33
2022/08/13 11:21:48;;;;;;;27.60;14.02;;;;;;;34.26;57.63;100501.00;5083003;27;66145;-33
2022/08/13 11:24:41;;;;;;;30.27;13.98;;;;;;;34.37;57.75;100512.84;5081443;27;70193;-32
2022/08/13 11:27:22;;;;;;;24.60;13.85;;;;;;;34.37;58.17;100514.75;5078969;28;67026;-34
2022/08/13 11:30:17;;;;;;;24.60;13.38;;;;;;;34.36;58.41;100526.72;5079041;28;70764;-33
2022/08/13 11:33:02;;;;;;;32.15;13.00;;;;;;;34.32;58.15;100520.13;5068819;27;66671;-33
2022/08/13 11:35:40;;;;;;;30.02;14.05;;;;;;;34.34;58.36;100529.69;5079999;28;70374;-33
2022/08/13 11:38:23;;;;;;;22.50;13.23;;;;;;;34.35;58.94;100530.50;5063341;28;67137;-32
2022/08/13 11:40:59;;;;;;;24.33;13.60;;;;;;;34.34;58.63;100532.41;5057991;28;70326;-33
2022/08/13 11:43:33;;;;;;;28.60;13.43;;;;;;;34.31;58.22;100537.56;5062814;28;65975;-34
2022/08/13 11:46:27;;;;;;;20.77;12.30;;;;;;;34.31;58.21;100543.81;5057121;28;70218;-33
2022/08/13 11:49:01;;;;;;;32.40;13.00;;;;;;;34.28;58.47;100535.34;5050022;28;66349;-34
2022/08/13 11:51:50;;;;;;;23.88;14.00;;;;;;;34.30;58.16;100544.06;5063482;27;70434;-31
2022/08/13 11:54:24;;;;;;;27.48;13.35;;;;;;;34.31;57.88;100553.88;5079610;28;66506;-33
2022/08/13 11:57:05;;;;;;;21.42;12.90;;;;;;;34.30;58.17;100546.78;5078832;28;70900;-32
2022/08/13 11:59:43;;;;;;;19.20;13.13;;;;;;;34.27;58.19;100553.56;5050064;28;66753;-32
2022/08/13 12:02:25;;;;;;;21.88;13.32;;;;;;;34.24;58.64;100565.78;5038892;28;70536;-32
2022/08/13 12:05:03;;;;;;;19.00;12.65;;;;;;;34.26;58.60;100574.50;5061219;28;67121;-33
2022/08/13 12:07:43;;;;;;;17.00;12.85;;;;;;;34.23;59.44;100572.28;5078056;28;70787;-34
2022/08/13 12:10:19;;;;;;;18.42;12.90;;;;;;;34.09;59.26;100554.66;5076567;28;66137;-34
2022/08/13 12:13:14;;;;;;;25.05;12.95;;;;;;;34.20;59.17;100578.25;5078210;28;70859;-33
2022/08/13 12:15:53;;;;;;;19.60;13.52;;;;;;;34.19;59.74;100595.66;5063618;28;66903;-32
2022/08/13 12:18:43;;;;;;;22.63;13.20;;;;;;;34.12;59.60;100589.56;5063233;28;70210;-33
2022/08/13 12:21:37;;;;;;;16.70;13.50;;;;;;;34.19;59.62;100603.00;5063224;28;67161;-33
2022/08/13 12:24:13;;;;;;;22.08;14.60;;;;;;;34.16;60.15;100598.88;5075446;27;70642;-33
2022/08/13 12:26:46;;;;;;;20.50;13.88;;;;;;;34.14;60.06;100606.47;5059061;28;67056;-32
2022/08/13 12:29:26;;;;;;;22.23;13.88;;;;;;;34.15;60.02;100602.66;5077742;28;70814;-31
2022/08/13 12:32:16;;;;;;;20.98;15.98;;;;;;;33.83;61.35;100604.31;5055493;28;66546;-33
2022/08/13 12:34:49;;;;;;;21.83;14.63;;;;;;;33.66;62.43;100610.56;5044742;28;70674;-32
2022/08/13 12:37:24;;;;;;;21.23;15.68;;;;;;;33.56;63.40;100607.66;5075523;28;66912;-32
2022/08/13 12:40:14;;;;;;;18.20;14.82;;;;;;;33.45;63.66;100613.97;5079301;28;71178;-32
2022/08/13 12:42:48;;;;;;;18.33;15.63;;;;;;;33.36;64.41;100606.19;5061999;28;66881;-32
2022/08/13 12:45:27;;;;;;;19.25;15.55;;;;;;;33.29;65.36;100599.25;5060460;28;70956;-34